Time;durP1;ratioP1;P1;durP2;ratioP2;P2;SDS_P1;SDS_P2;PMS_P1;PMS_P2;Temp;Humidity;BMP_temperature;BMP_pressure;BME280_temperature;BME280_humidity;BME280_pressure;Samples;Min_cycle;Max_cycle;Signal;HPM_P1;HPM_P2
2022/12/29 00:02:09;;;;;;;4.50;2.43;;;14.00;99.90;;;;;;5018133;28;20191;-68
2022/12/29 00:04:35;;;;;;;2.60;2.10;;;14.00;99.90;;;;;;5016258;28;20191;-68
2022/12/29 00:07:00;;;;;;;3.07;2.33;;;13.90;99.90;;;;;;5013578;28;20674;-68
2022/12/29 00:09:26;;;;;;;5.53;2.30;;;14.00;99.90;;;;;;5016448;28;20184;-68
2022/12/29 00:11:52;;;;;;;2.70;2.10;;;14.00;99.90;;;;;;5017799;28;20193;-67
2022/12/29 00:17:03;;;;;;;3.13;2.27;;;14.00;99.90;;;;;;5017026;28;20216;-68
2022/12/29 00:36:04;;;;;;;3.97;2.00;;;13.90;99.90;;;;;;5012831;28;20480;-69
2022/12/29 00:44:05;;;;;;;3.70;1.97;;;13.90;99.90;;;;;;5009955;28;20535;-69
2022/12/29 00:46:35;;;;;;;3.27;2.50;;;13.90;99.90;;;;;;5014533;28;20506;-71
2022/12/29 00:51:46;;;;;;;3.50;2.30;;;13.80;99.90;;;;;;5007789;28;20482;-69
2022/12/29 00:54:12;;;;;;;4.50;2.83;;;13.80;99.90;;;;;;5021523;28;21081;-68
2022/12/29 00:56:38;;;;;;;3.80;2.57;;;13.80;99.90;;;;;;5008802;28;20466;-69
2022/12/29 00:59:06;;;;;;;3.57;2.27;;;13.80;99.90;;;;;;5016840;28;20816;-68
2022/12/29 01:01:32;;;;;;;5.17;2.30;;;13.70;99.90;;;;;;5018328;28;20249;-72
2022/12/29 01:03:57;;;;;;;3.60;2.57;;;13.70;99.90;;;;;;5024828;28;20453;-70
2022/12/29 01:06:23;;;;;;;4.80;2.73;;;13.70;99.90;;;;;;5014058;28;20556;-70
2022/12/29 01:10:09;;;;;;;7.40;2.50;;;13.70;99.90;;;;;;5010401;28;20668;-70
2022/12/29 01:11:35;;;;;;;4.07;3.70;;;13.70;99.90;;;;;;5023220;28;20448;-68
2022/12/29 01:14:00;;;;;;;5.63;2.03;;;13.70;99.90;;;;;;5009307;28;21109;-70
2022/12/29 01:16:26;;;;;;;2.80;2.50;;;13.70;99.90;;;;;;5009776;28;20690;-69
2022/12/29 01:18:51;;;;;;;2.83;2.50;;;13.70;99.90;;;;;;5011616;28;20208;-70
2022/12/29 01:21:17;;;;;;;5.17;2.30;;;13.70;99.90;;;;;;5016371;28;20203;-71
2022/12/29 01:23:42;;;;;;;7.10;2.33;;;13.60;99.90;;;;;;5013746;28;20180;-68
2022/12/29 01:26:09;;;;;;;3.73;2.27;;;13.60;99.90;;;;;;5011281;28;20197;-70
2022/12/29 01:28:35;;;;;;;6.27;2.40;;;13.60;99.90;;;;;;5013411;28;20188;-70
2022/12/29 01:31:01;;;;;;;2.40;2.20;;;13.60;99.90;;;;;;5013307;28;20954;-69
2022/12/29 01:33:26;;;;;;;3.83;2.23;;;13.70;99.90;;;;;;5020470;28;20199;-69
2022/12/29 01:35:52;;;;;;;2.80;1.90;;;13.70;99.90;;;;;;5016134;28;20206;-68
2022/12/29 01:38:17;;;;;;;3.20;2.40;;;13.70;99.90;;;;;;5012840;28;20215;-69
2022/12/29 01:40:45;;;;;;;3.50;2.30;;;13.70;99.90;;;;;;5012340;28;20185;-69
2022/12/29 01:43:13;;;;;;;5.10;2.73;;;13.70;99.90;;;;;;5014426;28;21185;-69
2022/12/29 01:45:39;;;;;;;4.43;2.20;;;13.70;99.90;;;;;;5015598;28;20452;-70
2022/12/29 01:48:08;;;;;;;2.93;2.20;;;13.70;99.90;;;;;;5010702;28;20448;-70
2022/12/29 01:50:39;;;;;;;3.40;2.20;;;13.70;99.90;;;;;;5016116;28;20446;-69
2022/12/29 01:53:10;;;;;;;5.30;2.60;;;13.70;99.90;;;;;;5016580;28;20443;-70
2022/12/29 01:55:46;;;;;;;4.00;2.67;;;13.80;99.90;;;;;;5007290;28;20922;-70
2022/12/29 01:58:13;;;;;;;7.03;2.73;;;13.80;99.90;;;;;;5012852;28;20520;-70
2022/12/29 02:00:39;;;;;;;2.63;2.00;;;13.80;99.90;;;;;;5013848;28;20441;-70
2022/12/29 02:03:06;;;;;;;2.87;2.40;;;13.70;99.90;;;;;;5020515;28;20436;-72
2022/12/29 02:05:44;;;;;;;2.70;1.90;;;13.80;99.90;;;;;;5014841;28;20299;-70
2022/12/29 02:08:12;;;;;;;4.80;2.47;;;13.80;99.90;;;;;;5021172;28;21410;-70
2022/12/29 02:10:39;;;;;;;6.10;2.57;;;13.80;99.90;;;;;;5018085;28;20539;-70
2022/12/29 02:13:04;;;;;;;4.20;2.27;;;13.80;99.90;;;;;;5021297;28;20593;-70
2022/12/29 02:15:55;;;;;;;7.80;2.53;;;13.70;99.90;;;;;;5021274;28;20467;-71
2022/12/29 02:18:36;;;;;;;3.10;2.10;;;13.70;99.90;;;;;;5022167;28;20239;-70
2022/12/29 02:21:46;;;;;;;4.80;2.40;;;13.60;99.90;;;;;;5021223;28;20505;-70
2022/12/29 02:24:23;;;;;;;2.60;2.20;;;13.60;99.90;;;;;;5015953;28;20443;-70
2022/12/29 02:27:17;;;;;;;2.90;1.93;;;13.60;99.90;;;;;;5018883;28;20829;-70
2022/12/29 02:30:00;;;;;;;4.60;2.40;;;13.50;99.90;;;;;;5011650;28;20470;-70
2022/12/29 02:32:38;;;;;;;5.27;3.10;;;13.50;99.90;;;;;;5017874;28;20510;-70
2022/12/29 02:35:12;;;;;;;3.20;2.33;;;13.60;99.90;;;;;;5021327;28;20989;-70
2022/12/29 02:37:54;;;;;;;3.40;2.20;;;13.60;99.90;;;;;;5016750;28;20560;-70
2022/12/29 02:40:24;;;;;;;3.17;2.10;;;13.50;99.90;;;;;;5014857;28;20435;-70
2022/12/29 02:43:00;;;;;;;5.07;2.40;;;13.60;99.90;;;;;;5022209;28;20451;-71
2022/12/29 02:45:43;;;;;;;3.40;2.93;;;13.60;99.90;;;;;;5019452;28;20680;-70
2022/12/29 02:48:27;;;;;;;2.60;2.10;;;13.60;99.90;;;;;;5018444;28;20442;-70
2022/12/29 02:51:03;;;;;;;3.43;2.20;;;13.60;99.90;;;;;;5016102;28;20533;-69
2022/12/29 02:56:16;;;;;;;2.33;1.90;;;13.70;99.90;;;;;;5021325;28;21266;-69
2022/12/29 02:58:41;;;;;;;6.27;2.20;;;13.70;99.90;;;;;;5016865;28;20499;-69
2022/12/29 03:01:21;;;;;;;3.53;1.90;;;13.70;99.90;;;;;;5018402;28;20217;-70
2022/12/29 03:04:06;;;;;;;4.30;1.93;;;13.70;99.90;;;;;;5018038;28;20176;-70
2022/12/29 03:06:37;;;;;;;5.70;2.60;;;13.70;99.90;;;;;;5022657;28;21068;-70
2022/12/29 03:09:20;;;;;;;3.50;2.10;;;13.60;99.90;;;;;;5014512;28;20436;-70
2022/12/29 03:12:10;;;;;;;2.93;1.90;;;13.60;99.90;;;;;;5013530;28;20480;-69
2022/12/29 03:18:05;;;;;;;2.80;2.03;;;13.50;99.90;;;;;;5010699;28;20486;-69
2022/12/29 03:21:01;;;;;;;4.70;2.23;;;13.50;99.90;;;;;;5017508;28;20530;-70
2022/12/29 03:23:28;;;;;;;3.07;2.33;;;13.60;99.90;;;;;;5017365;28;20446;-70
2022/12/29 03:25:57;;;;;;;3.63;2.17;;;13.60;99.90;;;;;;5013732;28;20832;-70
2022/12/29 03:28:29;;;;;;;2.60;2.10;;;13.60;99.90;;;;;;5012406;28;21031;-71
2022/12/29 03:30:57;;;;;;;2.33;2.00;;;13.60;99.90;;;;;;5014302;28;20533;-71
2022/12/29 03:33:26;;;;;;;3.67;2.07;;;13.60;99.90;;;;;;5017477;28;20450;-71
2022/12/29 03:35:58;;;;;;;3.13;2.40;;;13.60;99.90;;;;;;5013995;28;20462;-71
2022/12/29 03:38:40;;;;;;;2.27;1.87;;;13.60;99.90;;;;;;5016083;28;20466;-71
2022/12/29 03:41:11;;;;;;;4.13;2.03;;;13.60;99.90;;;;;;5018340;28;20518;-71
2022/12/29 03:43:37;;;;;;;3.83;2.20;;;13.70;99.90;;;;;;5015425;28;20444;-71
2022/12/29 03:46:03;;;;;;;2.87;2.20;;;13.60;99.90;;;;;;5019351;28;20477;-70
2022/12/29 03:48:28;;;;;;;2.43;1.90;;;13.70;99.90;;;;;;5016479;28;20185;-70
2022/12/29 03:50:54;;;;;;;3.20;2.20;;;13.60;99.90;;;;;;5018116;28;20644;-70
2022/12/29 03:53:19;;;;;;;2.73;2.23;;;13.70;99.90;;;;;;5017200;28;20192;-69
2022/12/29 03:55:45;;;;;;;6.03;2.07;;;13.70;99.90;;;;;;5015115;28;20311;-70
2022/12/29 03:58:11;;;;;;;2.50;1.90;;;13.60;99.90;;;;;;5020612;28;20208;-70
2022/12/29 04:00:37;;;;;;;2.93;2.30;;;13.60;99.90;;;;;;5013680;28;20195;-70
2022/12/29 04:03:03;;;;;;;5.40;2.47;;;13.60;99.90;;;;;;5017938;28;20424;-70
2022/12/29 04:05:28;;;;;;;8.63;4.53;;;13.60;99.90;;;;;;5012499;28;21062;-71
2022/12/29 04:07:54;;;;;;;4.53;2.37;;;13.60;99.90;;;;;;5017667;28;20188;-70
2022/12/29 04:10:19;;;;;;;3.57;2.30;;;13.60;99.90;;;;;;5015268;28;20211;-70
2022/12/29 04:12:46;;;;;;;2.63;1.90;;;13.50;99.90;;;;;;5015524;28;20541;-71
2022/12/29 04:15:12;;;;;;;2.90;2.37;;;13.50;99.90;;;;;;5014224;28;20187;-69
2022/12/29 04:17:37;;;;;;;6.17;2.10;;;13.50;99.90;;;;;;5015439;28;20471;-70
2022/12/29 04:22:48;;;;;;;3.07;2.27;;;13.50;99.90;;;;;;5011061;28;20211;-70
2022/12/29 04:25:14;;;;;;;2.83;1.90;;;13.50;99.90;;;;;;5009943;28;20444;-69
2022/12/29 04:27:39;;;;;;;2.90;2.23;;;13.50;99.90;;;;;;5015304;28;20197;-69
2022/12/29 04:30:05;;;;;;;2.93;1.80;;;13.40;99.90;;;;;;5010687;28;20686;-70
2022/12/29 04:32:31;;;;;;;6.10;1.90;;;13.40;99.90;;;;;;5017873;28;20192;-69
2022/12/29 04:34:56;;;;;;;3.23;2.50;;;13.40;99.90;;;;;;5015575;28;20450;-69
2022/12/29 04:37:23;;;;;;;2.60;2.13;;;13.40;99.90;;;;;;5016293;28;20208;-68
2022/12/29 04:39:48;;;;;;;2.90;2.13;;;13.30;99.90;;;;;;5014438;28;20563;-69
2022/12/29 04:42:14;;;;;;;2.50;2.10;;;13.30;99.90;;;;;;5009503;28;20440;-70
2022/12/29 04:44:39;;;;;;;4.10;2.50;;;13.30;99.90;;;;;;5016213;28;20262;-70
2022/12/29 04:47:05;;;;;;;3.27;2.03;;;13.30;99.90;;;;;;5016807;28;20218;-70
2022/12/29 04:49:30;;;;;;;2.70;2.33;;;13.30;99.90;;;;;;5014829;28;20226;-69
2022/12/29 04:51:56;;;;;;;5.70;2.53;;;13.40;99.90;;;;;;5018066;28;21422;-69
2022/12/29 04:54:22;;;;;;;4.63;4.23;;;13.40;99.90;;;;;;5010800;28;20176;-69
2022/12/29 04:56:48;;;;;;;4.90;2.10;;;13.40;99.90;;;;;;5017473;28;20819;-70
2022/12/29 04:59:13;;;;;;;3.17;2.20;;;13.40;99.90;;;;;;5012135;28;20457;-70
2022/12/29 05:01:39;;;;;;;2.70;2.30;;;13.50;99.90;;;;;;5013273;28;20223;-70
2022/12/29 05:04:04;;;;;;;2.50;2.30;;;13.50;99.90;;;;;;5019899;28;20184;-69
2022/12/29 05:06:30;;;;;;;3.60;2.43;;;13.40;99.90;;;;;;5018518;28;20219;-69
2022/12/29 05:08:55;;;;;;;4.00;2.40;;;13.40;99.90;;;;;;5012984;28;20194;-69
2022/12/29 05:11:21;;;;;;;4.27;2.73;;;13.40;99.90;;;;;;5016559;28;20216;-69
2022/12/29 05:13:46;;;;;;;3.53;2.53;;;13.40;99.90;;;;;;5011244;28;20191;-69
2022/12/29 05:16:12;;;;;;;4.93;2.20;;;13.50;99.90;;;;;;5020489;28;20204;-69
2022/12/29 05:18:38;;;;;;;9.43;2.30;;;13.50;99.90;;;;;;5013084;28;20205;-68
2022/12/29 05:21:04;;;;;;;3.37;2.43;;;13.50;99.90;;;;;;5019482;28;20219;-68
2022/12/29 05:23:29;;;;;;;3.73;2.80;;;13.60;99.90;;;;;;5014362;28;20189;-68
2022/12/29 05:25:55;;;;;;;4.00;2.30;;;13.50;99.90;;;;;;5012706;28;20266;-68
2022/12/29 05:28:20;;;;;;;6.37;2.30;;;13.50;99.90;;;;;;5010076;28;20200;-68
2022/12/29 05:30:49;;;;;;;3.70;2.60;;;13.50;99.90;;;;;;5014158;28;20189;-68
2022/12/29 05:33:15;;;;;;;3.93;2.60;;;13.60;99.90;;;;;;5019226;28;20754;-68
2022/12/29 05:35:41;;;;;;;4.60;2.47;;;13.60;99.90;;;;;;5014842;28;20565;-68
2022/12/29 05:38:06;;;;;;;3.17;2.57;;;13.60;99.90;;;;;;5015279;28;20219;-68
2022/12/29 05:40:32;;;;;;;3.43;2.53;;;13.60;99.90;;;;;;5007100;28;20212;-69
2022/12/29 05:42:57;;;;;;;2.63;2.40;;;13.60;99.90;;;;;;5013799;28;20185;-69
2022/12/29 05:45:23;;;;;;;3.53;2.77;;;13.60;99.90;;;;;;5017608;28;20199;-69
2022/12/29 05:47:48;;;;;;;4.33;2.23;;;13.60;99.90;;;;;;5012917;28;20188;-69
2022/12/29 05:50:14;;;;;;;3.73;2.60;;;13.60;99.90;;;;;;5016080;28;20188;-68
2022/12/29 05:52:40;;;;;;;3.47;2.40;;;13.60;99.90;;;;;;5016769;28;20694;-68
2022/12/29 05:55:06;;;;;;;3.40;2.67;;;13.60;99.90;;;;;;5008369;28;20243;-68
2022/12/29 05:57:31;;;;;;;3.47;2.50;;;13.60;99.90;;;;;;5014223;28;20310;-68
2022/12/29 05:59:57;;;;;;;3.33;2.33;;;13.50;99.90;;;;;;5012375;28;20466;-68
2022/12/29 06:02:23;;;;;;;4.50;2.60;;;13.60;99.90;;;;;;5012967;28;20188;-68
2022/12/29 06:04:48;;;;;;;3.57;2.63;;;13.70;99.90;;;;;;5014579;28;20654;-68
2022/12/29 06:07:14;;;;;;;3.47;2.20;;;13.70;99.90;;;;;;5015911;28;20204;-68
2022/12/29 06:09:39;;;;;;;5.53;2.80;;;13.70;99.90;;;;;;5012457;28;20195;-68
2022/12/29 06:12:05;;;;;;;6.77;2.60;;;13.70;99.90;;;;;;5013100;28;20194;-68
2022/12/29 06:14:31;;;;;;;4.53;2.37;;;13.80;99.90;;;;;;5016392;28;20185;-68
2022/12/29 06:16:56;;;;;;;3.43;2.60;;;13.70;99.90;;;;;;5010882;28;20204;-69
2022/12/29 06:19:22;;;;;;;3.07;2.77;;;13.70;99.90;;;;;;5013991;28;20184;-69
2022/12/29 06:21:47;;;;;;;3.00;2.30;;;13.70;99.90;;;;;;5012486;28;20192;-68
2022/12/29 06:24:13;;;;;;;4.47;2.60;;;13.80;99.90;;;;;;5013805;28;20184;-69
2022/12/29 06:26:40;;;;;;;3.40;2.83;;;13.80;99.90;;;;;;5012800;28;20276;-69
2022/12/29 06:29:07;;;;;;;4.77;2.57;;;13.70;99.90;;;;;;5014693;28;20721;-69
2022/12/29 06:31:33;;;;;;;4.73;2.47;;;13.80;99.90;;;;;;5012204;28;20439;-69
2022/12/29 06:33:59;;;;;;;4.63;2.77;;;13.80;99.90;;;;;;5012852;28;22095;-68
2022/12/29 06:36:24;;;;;;;2.60;2.30;;;13.80;99.90;;;;;;5013893;28;20299;-69
2022/12/29 06:38:52;;;;;;;3.00;2.57;;;13.80;99.90;;;;;;5012717;28;20247;-69
2022/12/29 06:41:18;;;;;;;5.80;2.17;;;13.80;99.90;;;;;;5010469;28;20189;-70
2022/12/29 06:43:44;;;;;;;2.80;2.40;;;13.80;99.90;;;;;;5013937;28;20504;-70
2022/12/29 06:46:09;;;;;;;3.90;2.63;;;13.90;99.90;;;;;;5014693;28;21752;-69
2022/12/29 06:48:35;;;;;;;5.07;2.70;;;13.90;99.90;;;;;;5017642;28;20184;-69
2022/12/29 06:51:00;;;;;;;5.97;3.03;;;13.80;99.90;;;;;;5016867;28;20228;-69
2022/12/29 06:53:26;;;;;;;3.30;2.63;;;13.90;99.90;;;;;;5016280;28;20638;-68
2022/12/29 06:55:52;;;;;;;2.97;2.47;;;13.80;99.90;;;;;;5013432;28;20200;-69
2022/12/29 06:58:17;;;;;;;3.40;2.30;;;13.80;99.90;;;;;;5020777;28;20681;-68
2022/12/29 07:00:43;;;;;;;4.07;2.70;;;13.90;99.90;;;;;;5016249;28;20185;-68
2022/12/29 07:03:08;;;;;;;4.23;2.33;;;13.80;99.90;;;;;;5017223;28;20180;-68
2022/12/29 07:05:34;;;;;;;5.57;2.80;;;13.80;99.90;;;;;;5017172;28;20255;-69
2022/12/29 07:08:00;;;;;;;2.80;2.47;;;13.80;99.90;;;;;;5010602;28;20863;-70
2022/12/29 07:10:26;;;;;;;3.00;2.70;;;13.80;99.90;;;;;;5018744;28;20304;-69
2022/12/29 07:12:51;;;;;;;2.70;2.47;;;13.80;99.90;;;;;;5012311;28;20268;-68
2022/12/29 07:15:17;;;;;;;4.30;2.47;;;13.90;99.90;;;;;;5015867;28;20520;-67
2022/12/29 07:17:43;;;;;;;5.80;2.60;;;13.90;99.90;;;;;;5012629;28;20666;-67
2022/12/29 07:20:09;;;;;;;3.10;2.80;;;13.90;99.90;;;;;;5018753;28;20281;-68
2022/12/29 07:22:35;;;;;;;3.03;2.50;;;13.90;99.90;;;;;;5016169;28;20635;-69
2022/12/29 07:25:00;;;;;;;5.03;2.80;;;13.80;99.90;;;;;;5018086;28;20442;-68
2022/12/29 07:27:27;;;;;;;4.50;2.87;;;13.80;99.90;;;;;;5014403;28;20768;-68
2022/12/29 07:29:53;;;;;;;4.20;2.60;;;13.90;99.90;;;;;;5018045;28;20206;-68
2022/12/29 07:32:18;;;;;;;4.20;2.70;;;13.90;99.90;;;;;;5014632;28;20443;-68
2022/12/29 07:34:47;;;;;;;3.13;2.33;;;13.90;99.90;;;;;;5013192;28;21045;-67
2022/12/29 07:37:14;;;;;;;2.80;2.50;;;13.90;99.90;;;;;;5013661;28;20211;-67
2022/12/29 07:39:39;;;;;;;5.13;2.70;;;13.90;99.90;;;;;;5017906;28;20442;-67
2022/12/29 07:42:05;;;;;;;3.67;2.57;;;13.80;99.90;;;;;;5012518;28;20439;-69
2022/12/29 07:44:31;;;;;;;5.70;2.40;;;13.90;99.90;;;;;;5015468;28;20191;-68
2022/12/29 07:46:56;;;;;;;4.57;2.33;;;13.90;99.90;;;;;;5014049;28;20216;-69
2022/12/29 07:49:22;;;;;;;3.93;2.63;;;13.90;99.90;;;;;;5012908;28;20204;-68
2022/12/29 07:51:47;;;;;;;5.83;2.90;;;13.90;99.90;;;;;;5015894;28;20553;-68
2022/12/29 07:54:13;;;;;;;3.70;2.50;;;13.90;99.90;;;;;;5014712;28;20275;-68
2022/12/29 07:56:38;;;;;;;4.37;2.67;;;13.90;99.90;;;;;;5015675;28;20350;-68
2022/12/29 07:59:04;;;;;;;4.37;2.50;;;13.90;99.90;;;;;;5011502;28;20208;-67
2022/12/29 08:01:30;;;;;;;4.60;2.40;;;13.90;99.90;;;;;;5016793;28;20188;-68
2022/12/29 08:03:55;;;;;;;7.60;2.87;;;14.00;99.90;;;;;;5008474;28;20239;-68
2022/12/29 08:06:22;;;;;;;3.03;2.57;;;14.00;99.90;;;;;;5013696;28;20700;-68
2022/12/29 08:08:47;;;;;;;3.50;2.50;;;14.00;99.90;;;;;;5014583;28;20238;-69
2022/12/29 08:11:13;;;;;;;2.90;2.60;;;14.00;99.90;;;;;;5015297;28;20956;-68
2022/12/29 08:13:38;;;;;;;4.07;2.37;;;14.00;99.90;;;;;;5016457;28;20191;-68
2022/12/29 08:16:04;;;;;;;2.90;2.33;;;14.00;99.90;;;;;;5013263;28;20209;-68
2022/12/29 08:18:30;;;;;;;3.73;2.70;;;14.00;99.90;;;;;;5016131;28;21239;-67
2022/12/29 08:21:00;;;;;;;2.77;2.20;;;14.00;99.90;;;;;;5013423;28;20508;-80
2022/12/29 08:23:26;;;;;;;3.90;2.50;;;14.10;99.90;;;;;;5014662;28;20554;-68
2022/12/29 08:26:00;;;;;;;4.33;2.57;;;14.10;99.90;;;;;;5010578;28;20455;-66
2022/12/29 08:28:26;;;;;;;5.10;2.83;;;14.10;99.90;;;;;;5013336;28;20188;-67
2022/12/29 08:30:52;;;;;;;2.57;2.23;;;14.10;99.90;;;;;;5012901;28;20757;-67
2022/12/29 08:33:18;;;;;;;4.03;2.50;;;14.10;99.90;;;;;;5013639;28;20529;-67
2022/12/29 08:35:44;;;;;;;6.40;2.97;;;14.10;99.90;;;;;;5015566;28;20665;-67
2022/12/29 08:38:13;;;;;;;2.93;2.50;;;14.10;99.90;;;;;;5013717;28;20880;-67
2022/12/29 08:40:38;;;;;;;4.00;2.17;;;14.20;99.90;;;;;;5016499;28;20446;-67
2022/12/29 08:43:05;;;;;;;3.90;2.60;;;14.10;99.90;;;;;;5013280;28;20919;-67
2022/12/29 08:45:30;;;;;;;4.20;2.30;;;14.10;99.90;;;;;;5011852;28;20227;-66
2022/12/29 08:47:56;;;;;;;4.23;2.87;;;14.10;99.90;;;;;;5013085;28;20509;-67
2022/12/29 08:50:21;;;;;;;2.57;1.93;;;14.10;99.90;;;;;;5013207;28;20180;-66
2022/12/29 08:52:47;;;;;;;2.97;2.47;;;14.10;99.90;;;;;;5013697;28;20387;-65
2022/12/29 08:55:13;;;;;;;4.87;2.50;;;14.10;99.90;;;;;;5013132;28;20185;-66
2022/12/29 08:57:38;;;;;;;5.10;2.50;;;14.20;99.90;;;;;;5015126;28;20714;-66
2022/12/29 09:00:05;;;;;;;5.23;3.03;;;14.20;99.90;;;;;;5013789;28;20751;-66
2022/12/29 09:02:30;;;;;;;5.07;2.40;;;14.20;99.90;;;;;;5011938;28;20189;-66
2022/12/29 09:04:57;;;;;;;5.40;2.77;;;14.20;99.90;;;;;;5009968;28;20435;-66
2022/12/29 09:07:23;;;;;;;3.30;2.43;;;14.20;99.90;;;;;;5017131;28;20224;-66
2022/12/29 09:09:49;;;;;;;3.37;2.60;;;14.20;99.90;;;;;;5012334;28;20458;-66
2022/12/29 09:12:16;;;;;;;2.93;2.27;;;14.20;99.90;;;;;;5015804;28;20871;-66
2022/12/29 09:14:42;;;;;;;4.83;2.57;;;14.30;99.90;;;;;;5014230;28;20183;-67
2022/12/29 09:19:53;;;;;;;3.00;2.20;;;14.30;99.90;;;;;;5012305;28;20535;-67
2022/12/29 09:22:18;;;;;;;2.90;2.20;;;14.30;99.90;;;;;;5013267;28;20431;-67
2022/12/29 09:24:44;;;;;;;4.80;2.87;;;14.40;99.90;;;;;;5014085;28;20184;-67
2022/12/29 09:27:10;;;;;;;6.50;2.43;;;14.40;99.90;;;;;;5011636;28;20205;-67
2022/12/29 09:29:35;;;;;;;4.07;2.90;;;14.40;99.90;;;;;;5012247;28;20658;-67
2022/12/29 09:32:01;;;;;;;3.47;2.40;;;14.40;99.90;;;;;;5012558;28;20295;-67
2022/12/29 09:34:26;;;;;;;3.90;2.50;;;14.40;99.90;;;;;;5012386;28;20208;-67
2022/12/29 09:36:52;;;;;;;3.60;2.70;;;14.40;99.90;;;;;;5010965;28;20205;-67
2022/12/29 09:39:17;;;;;;;3.20;2.40;;;14.40;99.90;;;;;;5015728;28;20581;-67
2022/12/29 09:42:02;;;;;;;2.70;2.30;;;14.50;99.90;;;;;;5019049;28;20701;-66
2022/12/29 09:44:33;;;;;;;5.53;2.30;;;14.50;99.90;;;;;;5005774;28;20176;-67
2022/12/29 09:47:00;;;;;;;2.80;2.07;;;14.50;99.90;;;;;;5011468;28;20462;-67
2022/12/29 09:49:30;;;;;;;4.13;2.17;;;14.50;99.90;;;;;;5011528;28;20672;-67
2022/12/29 09:52:02;;;;;;;4.20;2.80;;;14.50;99.90;;;;;;5014093;28;20459;-69
2022/12/29 09:54:50;;;;;;;5.23;2.40;;;14.50;99.90;;;;;;5011017;28;20458;-67
2022/12/29 09:57:51;;;;;;;7.30;2.63;;;14.50;99.90;;;;;;5015687;28;20827;-67
2022/12/29 10:00:20;;;;;;;4.40;2.50;;;14.60;99.90;;;;;;5012984;28;20548;-67
2022/12/29 10:02:54;;;;;;;3.30;2.33;;;14.60;99.90;;;;;;5009327;28;20481;-66
2022/12/29 10:05:41;;;;;;;3.73;2.20;;;14.60;99.90;;;;;;5009184;28;20438;-67
2022/12/29 10:08:09;;;;;;;2.60;2.30;;;14.60;99.90;;;;;;5005996;28;20530;-67
2022/12/29 10:10:40;;;;;;;2.97;2.23;;;14.60;99.90;;;;;;5014603;28;20534;-67
2022/12/29 10:13:44;;;;;;;5.10;2.43;;;14.70;99.90;;;;;;5010383;28;20443;-66
2022/12/29 10:16:17;;;;;;;3.30;2.70;;;14.60;99.90;;;;;;5015691;28;20463;-67
2022/12/29 10:19:34;;;;;;;2.60;2.17;;;14.60;99.90;;;;;;5009251;28;20470;-67
2022/12/29 10:22:18;;;;;;;3.33;2.37;;;14.60;99.90;;;;;;4993049;28;20454;-67
2022/12/29 10:24:46;;;;;;;3.70;2.67;;;14.70;99.90;;;;;;5020436;28;20432;-67
2022/12/29 10:27:13;;;;;;;7.43;3.57;;;14.70;99.90;;;;;;5012361;28;20453;-67
2022/12/29 10:29:48;;;;;;;6.77;3.40;;;14.70;99.90;;;;;;5019788;28;20809;-67
2022/12/29 10:32:31;;;;;;;3.63;2.80;;;14.60;99.90;;;;;;5014737;28;20477;-67
2022/12/29 10:35:04;;;;;;;4.63;2.73;;;14.50;99.90;;;;;;5014346;28;20434;-67
2022/12/29 10:37:50;;;;;;;4.07;2.60;;;14.60;99.90;;;;;;5013797;28;20470;-67
2022/12/29 10:40:19;;;;;;;3.97;2.17;;;14.60;99.90;;;;;;5007652;28;20446;-67
2022/12/29 10:42:54;;;;;;;5.10;2.53;;;14.60;99.90;;;;;;5018101;28;20440;-67
2022/12/29 10:45:23;;;;;;;5.07;2.40;;;14.60;99.90;;;;;;5017541;28;20559;-67
2022/12/29 10:47:55;;;;;;;5.27;2.60;;;14.60;99.90;;;;;;5015469;28;20438;-67
2022/12/29 10:50:23;;;;;;;3.30;2.30;;;14.50;99.90;;;;;;5015556;28;20458;-67
2022/12/29 10:52:48;;;;;;;4.53;2.50;;;14.50;99.90;;;;;;5017714;28;20956;-67
2022/12/29 10:55:36;;;;;;;3.87;2.40;;;14.50;99.90;;;;;;5014625;28;20434;-67
2022/12/29 10:58:05;;;;;;;3.47;2.20;;;14.50;99.90;;;;;;5010509;28;20463;-67
2022/12/29 11:00:32;;;;;;;3.33;2.33;;;14.60;99.90;;;;;;5014518;28;20986;-67
2022/12/29 11:03:07;;;;;;;4.00;2.60;;;14.60;99.90;;;;;;5011912;28;20509;-67
2022/12/29 11:06:01;;;;;;;3.33;3.00;;;14.70;99.90;;;;;;5014844;28;20470;-67
2022/12/29 11:08:33;;;;;;;4.23;2.30;;;14.70;99.90;;;;;;5017174;28;21042;-67
2022/12/29 11:11:04;;;;;;;7.23;2.67;;;14.70;99.90;;;;;;5012720;28;20447;-67
2022/12/29 11:13:32;;;;;;;4.33;2.13;;;14.80;99.90;;;;;;5018681;28;20775;-67
2022/12/29 11:16:00;;;;;;;3.73;2.50;;;14.70;99.90;;;;;;5015785;28;20512;-67
2022/12/29 11:18:31;;;;;;;4.10;2.60;;;14.70;99.90;;;;;;5020037;28;20552;-68
2022/12/29 11:21:03;;;;;;;2.20;2.00;;;14.80;99.90;;;;;;5012013;28;20797;-67
2022/12/29 11:23:41;;;;;;;4.40;2.33;;;14.80;99.90;;;;;;5015547;28;20439;-67
2022/12/29 11:26:15;;;;;;;3.83;2.53;;;14.70;99.90;;;;;;5016726;28;21019;-67
2022/12/29 11:28:43;;;;;;;4.30;2.97;;;14.70;99.90;;;;;;5017684;28;20454;-67
2022/12/29 11:31:10;;;;;;;3.90;2.40;;;14.70;99.90;;;;;;5014231;28;20514;-67
2022/12/29 11:33:38;;;;;;;2.97;2.40;;;14.80;99.90;;;;;;5014395;28;20465;-67
2022/12/29 11:36:13;;;;;;;3.90;2.60;;;14.80;99.90;;;;;;5014869;28;20471;-67
2022/12/29 11:38:42;;;;;;;2.60;2.03;;;14.90;99.90;;;;;;5014386;28;21063;-67
2022/12/29 11:41:13;;;;;;;3.70;2.43;;;14.80;99.90;;;;;;5012063;28;20451;-67
2022/12/29 11:43:43;;;;;;;8.40;2.47;;;14.80;99.90;;;;;;5019812;28;20526;-67
2022/12/29 11:46:17;;;;;;;3.93;2.20;;;14.80;99.90;;;;;;5018701;28;20462;-68
2022/12/29 11:48:43;;;;;;;5.17;2.40;;;14.80;99.90;;;;;;5016740;28;20581;-67
2022/12/29 11:51:11;;;;;;;2.63;1.90;;;14.80;99.90;;;;;;5015669;28;20820;-67
2022/12/29 11:53:46;;;;;;;6.90;2.80;;;14.80;99.90;;;;;;5017090;28;20457;-67
2022/12/29 11:56:31;;;;;;;3.93;2.90;;;14.80;99.90;;;;;;5012577;28;21079;-67
2022/12/29 11:58:56;;;;;;;3.90;2.30;;;14.80;99.90;;;;;;5014662;28;20467;-67
2022/12/29 12:01:38;;;;;;;3.30;2.43;;;14.90;99.90;;;;;;5011035;28;20435;-67
2022/12/29 12:04:23;;;;;;;3.23;2.40;;;15.00;99.90;;;;;;5012436;28;20224;-67
2022/12/29 12:07:07;;;;;;;5.63;2.50;;;15.00;99.90;;;;;;5019139;28;20746;-67
2022/12/29 12:09:42;;;;;;;2.60;2.00;;;15.10;99.90;;;;;;5016306;28;20447;-67
2022/12/29 12:12:15;;;;;;;2.27;1.90;;;15.00;99.90;;;;;;5016202;28;20434;-68
2022/12/29 12:14:59;;;;;;;2.40;1.80;;;15.10;99.90;;;;;;5011806;28;20464;-67
2022/12/29 12:17:48;;;;;;;3.20;2.13;;;15.10;99.90;;;;;;5012264;28;20447;-67
2022/12/29 12:20:37;;;;;;;2.00;1.63;;;15.10;99.90;;;;;;5014290;28;20435;-67
2022/12/29 12:23:18;;;;;;;2.13;1.60;;;15.20;99.90;;;;;;5014782;28;20443;-67
2022/12/29 12:26:00;;;;;;;6.13;1.97;;;15.10;99.90;;;;;;5014542;28;20474;-67
2022/12/29 12:28:39;;;;;;;2.60;1.60;;;15.10;99.90;;;;;;5014758;28;20445;-67
2022/12/29 12:31:15;;;;;;;3.00;1.63;;;15.00;99.90;;;;;;5012216;28;20435;-67
2022/12/29 12:33:45;;;;;;;2.00;1.50;;;15.10;99.90;;;;;;5014557;28;20447;-67
2022/12/29 12:36:22;;;;;;;1.97;1.60;;;15.00;99.90;;;;;;5011249;28;21194;-67
2022/12/29 12:39:05;;;;;;;3.10;1.93;;;15.00;99.90;;;;;;5012195;28;20561;-68
2022/12/29 12:41:36;;;;;;;3.00;2.10;;;15.00;99.90;;;;;;5013602;28;20451;-67
2022/12/29 12:44:32;;;;;;;4.97;2.17;;;15.00;99.90;;;;;;5009637;28;20440;-67
2022/12/29 12:47:08;;;;;;;3.63;2.00;;;14.90;99.90;;;;;;5014699;28;20469;-67
2022/12/29 12:49:52;;;;;;;2.50;1.83;;;14.90;99.90;;;;;;5015002;28;20537;-67
2022/12/29 12:52:44;;;;;;;2.37;1.80;;;14.90;99.90;;;;;;5006346;28;20917;-67
2022/12/29 12:55:36;;;;;;;2.77;2.17;;;14.90;99.90;;;;;;5013874;28;20439;-67
2022/12/29 12:58:08;;;;;;;2.20;1.70;;;14.90;99.90;;;;;;5012532;28;20549;-67
2022/12/29 13:00:44;;;;;;;2.97;2.10;;;14.90;99.90;;;;;;5011866;28;20440;-67
2022/12/29 13:03:27;;;;;;;2.97;2.20;;;14.90;99.90;;;;;;5014845;28;20435;-67
2022/12/29 13:06:31;;;;;;;5.80;2.03;;;14.90;99.90;;;;;;5013480;28;20465;-67
2022/12/29 13:09:36;;;;;;;2.43;2.00;;;14.90;99.90;;;;;;5010683;28;20513;-67
2022/12/29 13:12:31;;;;;;;3.93;2.20;;;14.90;99.90;;;;;;5007257;28;20443;-67
2022/12/29 13:15:31;;;;;;;4.20;2.30;;;14.80;99.90;;;;;;5012803;28;20569;-67
2022/12/29 13:18:09;;;;;;;2.80;2.03;;;14.90;99.90;;;;;;4992397;28;20481;-67
2022/12/29 13:21:00;;;;;;;2.50;1.80;;;14.90;99.90;;;;;;5011753;28;20825;-68
2022/12/29 13:23:43;;;;;;;4.73;2.40;;;14.80;99.90;;;;;;5014320;28;20435;-67
2022/12/29 13:26:24;;;;;;;5.00;2.47;;;14.80;99.90;;;;;;5011921;28;20881;-67
2022/12/29 13:28:57;;;;;;;3.03;2.57;;;14.80;99.90;;;;;;5015558;28;20861;-67
2022/12/29 13:31:41;;;;;;;4.23;2.03;;;14.70;99.90;;;;;;5017780;28;20984;-67
2022/12/29 13:34:30;;;;;;;5.87;2.10;;;14.60;99.90;;;;;;5011659;28;20476;-67
2022/12/29 13:37:08;;;;;;;2.50;1.97;;;14.40;99.90;;;;;;5017145;28;20450;-67
2022/12/29 13:39:38;;;;;;;2.50;1.77;;;14.20;99.90;;;;;;5009801;28;20479;-67
2022/12/29 13:42:05;;;;;;;2.17;1.70;;;14.10;99.90;;;;;;5015215;28;20883;-67
2022/12/29 13:44:36;;;;;;;5.57;1.90;;;14.00;99.90;;;;;;5012553;28;20432;-67
2022/12/29 13:47:26;;;;;;;2.00;1.80;;;14.00;99.90;;;;;;5008929;28;20455;-67